Huvudsida
METAR-TAF:

METAR-TAF

Flygplatser :

José Martís internationella flygplats

Havanna, Kuba

latitud: 22-59N, longitud: 082-24W, höjd: 59 m

Aktuellt väderrapport

Denna rapport gjordes för 49 minuter sedan, klockan 23:55 UTC
Vind 7 kt från nord, varierande mellan nordväst och ost
Temperatur 29°C
Fuktighet 74%
Tryck 1017 hPa
Sikt: 9000 m
Få moln på en höjd av 3000 ft

METAR: MUHA 212355Z 35007KT 310V080 9000 FEW030 29/24 Q1017

Tid: 20:44 (00:44 UTC)

Väderprognos

Denna rapport gjordes för 1 timme och 44 minuter sedan, klockan 23:00 UTC
Prognos gäller från 22 kl. 00 UTC till 22 kl. 24 UTC
Vind 8 kt från nord
Sikt: 9000 m
Få moln på en höjd av 3000 ft
Blir
från 22 kl. 03 UTC till 22 kl. 05 UTC
Vind 3 kt varierande vindriktning
Blir
från 22 kl. 18 UTC till 22 kl. 20 UTC
Vind 8 kt från nord
Spridda moln på en höjd av 4000 ft

TAF: MUHA 212300Z 2200/2224 36008KT 9000 FEW030 BECMG 2203/2205 VRB03KT BECMG 2218/2220 36008KT SCT040

Aktuella väderrapporter och prognoser från 4000 flygplatser (METAR- och TAF-rapporter).

De tillgängliga stationerna syns som gula och röda prickar på kartan.

För musen över prickarna för att se namnen på stationerna.

Klicka sedan för att få väderrapporter och prognoser.

För att ändra kartan: Klicka på de gröna knapparna med ett svart kors på för att zooma in; den gröna knappen med ett streck på för att zooma ut; eller på de gröna pilarna för angränsande kartor.


METAR-TAF: